createdAt,value
2023-03-29T00:01:03.268Z,101069.90
2023-03-29T00:03:35.864Z,101070.31
2023-03-29T00:06:08.654Z,101067.30
2023-03-29T00:08:40.862Z,101072.71
2023-03-29T00:11:13.076Z,101071.36
2023-03-29T00:13:45.065Z,101071.70
2023-03-29T00:16:17.759Z,101078.20
2023-03-29T00:18:49.800Z,101075.15
2023-03-29T00:21:22.485Z,101072.80
2023-03-29T00:23:54.656Z,101074.65
2023-03-29T00:26:26.867Z,101073.15
2023-03-29T00:28:58.848Z,101071.72
2023-03-29T00:31:31.642Z,101072.13
2023-03-29T00:34:03.658Z,101067.68
2023-03-29T00:36:35.487Z,101071.42
2023-03-29T00:39:07.433Z,101071.52
2023-03-29T00:41:39.302Z,101071.75
2023-03-29T00:44:42.071Z,101070.77
2023-03-29T00:47:14.043Z,101068.82
2023-03-29T00:49:46.339Z,101072.02
2023-03-29T00:52:21.582Z,101072.38
2023-03-29T00:54:56.123Z,101071.77
2023-03-29T00:57:30.566Z,101071.66
2023-03-29T01:00:05.497Z,101071.39
2023-03-29T01:02:40.025Z,101076.17
2023-03-29T01:05:14.974Z,101081.23
2023-03-29T01:07:52.360Z,101081.46
2023-03-29T01:10:28.992Z,101081.69
2023-03-29T01:13:06.214Z,101081.93
2023-03-29T01:15:38.430Z,101081.84
2023-03-29T01:18:10.684Z,101080.45
2023-03-29T01:20:51.468Z,101080.68
2023-03-29T01:23:41.300Z,101077.58
2023-03-29T01:26:18.171Z,101078.05
2023-03-29T01:28:56.920Z,101078.23
2023-03-29T01:31:31.086Z,101077.77
2023-03-29T01:34:07.014Z,101076.67
2023-03-29T01:36:42.668Z,101081.33
2023-03-29T01:39:14.566Z,101076.42
2023-03-29T01:41:53.533Z,101078.44
2023-03-29T01:44:30.776Z,101080.30
2023-03-29T01:47:08.660Z,101082.31
2023-03-29T01:49:43.922Z,101086.27
2023-03-29T01:52:18.311Z,101088.46
2023-03-29T01:54:54.400Z,101089.22
2023-03-29T01:57:28.140Z,101087.23
2023-03-29T02:00:00.891Z,101086.98
2023-03-29T02:02:33.469Z,101083.13
2023-03-29T02:05:05.943Z,101085.73
2023-03-29T02:07:40.804Z,101083.30
2023-03-29T02:10:14.646Z,101086.37
2023-03-29T02:12:46.486Z,101086.66
2023-03-29T02:15:20.576Z,101092.88
2023-03-29T02:17:51.147Z,101092.80
2023-03-29T02:20:26.138Z,101092.35
2023-03-29T02:23:02.968Z,101100.15
2023-03-29T02:25:35.120Z,101095.51
2023-03-29T02:28:07.973Z,101098.95
2023-03-29T02:30:46.632Z,101102.68
2023-03-29T02:33:24.058Z,101099.40
2023-03-29T02:35:57.988Z,101097.35
2023-03-29T02:38:31.501Z,101096.36
2023-03-29T02:41:04.211Z,101095.55
2023-03-29T02:43:37.832Z,101093.54
2023-03-29T02:46:10.302Z,101094.24
2023-03-29T02:48:42.526Z,101092.52
2023-03-29T02:51:19.929Z,101091.29
2023-03-29T02:53:56.157Z,101091.52
2023-03-29T02:56:28.545Z,101094.86
2023-03-29T02:59:00.618Z,101094.64
2023-03-29T03:01:32.790Z,101097.17
2023-03-29T03:04:04.889Z,101101.25
2023-03-29T03:06:37.633Z,101102.77
2023-03-29T03:09:10.102Z,101106.46
2023-03-29T03:11:42.451Z,101108.20
2023-03-29T03:14:14.185Z,101108.73
2023-03-29T03:16:46.661Z,101104.23
2023-03-29T03:19:19.187Z,101107.39
2023-03-29T03:21:51.242Z,101109.72
2023-03-29T03:24:23.111Z,101105.36
2023-03-29T03:26:55.496Z,101109.95
2023-03-29T03:29:28.487Z,101109.08
2023-03-29T03:32:01.221Z,101110.52
2023-03-29T03:34:34.786Z,101112.49
2023-03-29T03:37:06.919Z,101110.89
2023-03-29T03:39:38.973Z,101106.14
2023-03-29T03:42:11.496Z,101106.65
2023-03-29T03:44:45.002Z,101107.00
2023-03-29T03:47:17.151Z,101103.16
2023-03-29T03:49:49.065Z,101107.41
2023-03-29T03:52:21.568Z,101111.30
2023-03-29T03:54:53.568Z,101111.84
2023-03-29T03:57:25.515Z,101111.88
2023-03-29T03:59:57.596Z,101114.57
2023-03-29T04:02:29.700Z,101119.14
2023-03-29T04:05:03.525Z,101121.33
2023-03-29T04:07:37.196Z,101124.83
2023-03-29T04:10:11.269Z,101128.70
2023-03-29T04:12:41.774Z,101130.45
2023-03-29T04:15:13.777Z,101129.44
2023-03-29T04:17:46.141Z,101134.88
2023-03-29T04:20:18.924Z,101136.13
2023-03-29T04:22:50.990Z,101138.55
2023-03-29T04:25:23.374Z,101140.67
2023-03-29T04:27:55.663Z,101139.80
2023-03-29T04:30:28.197Z,101140.52
2023-03-29T04:33:00.318Z,101141.38
2023-03-29T04:35:32.499Z,101145.16
2023-03-29T04:38:10.314Z,101148.30
2023-03-29T04:40:43.907Z,101149.96
2023-03-29T04:43:16.128Z,101146.26
2023-03-29T04:45:48.042Z,101147.36
2023-03-29T04:48:20.333Z,101143.45
2023-03-29T04:50:52.402Z,101141.46
2023-03-29T04:53:24.687Z,101141.80
2023-03-29T04:55:59.016Z,101143.64
2023-03-29T04:58:32.505Z,101146.25
2023-03-29T05:01:05.906Z,101147.80
2023-03-29T05:03:37.837Z,101150.83
2023-03-29T05:06:12.200Z,101145.11
2023-03-29T05:08:44.817Z,101144.44
2023-03-29T05:11:17.643Z,101151.70
2023-03-29T05:13:49.825Z,101149.33
2023-03-29T05:16:21.931Z,101151.09
2023-03-29T05:18:55.496Z,101150.58
2023-03-29T05:21:28.494Z,101148.33
2023-03-29T05:24:00.625Z,101149.21
2023-03-29T05:26:32.475Z,101154.81
2023-03-29T05:29:04.837Z,101155.30
2023-03-29T05:31:37.905Z,101157.42
2023-03-29T05:34:09.891Z,101151.73
2023-03-29T05:36:42.926Z,101150.93
2023-03-29T05:39:15.729Z,101147.96
2023-03-29T05:41:47.610Z,101148.61
2023-03-29T05:44:20.450Z,101145.65
2023-03-29T05:46:52.205Z,101146.07
2023-03-29T05:49:24.579Z,101144.82
2023-03-29T05:51:57.273Z,101145.04
2023-03-29T05:54:29.713Z,101147.36
2023-03-29T05:57:01.777Z,101150.65
2023-03-29T05:59:34.196Z,101155.27
2023-03-29T06:02:06.108Z,101147.73
2023-03-29T06:04:38.664Z,101145.73
2023-03-29T06:07:12.530Z,101149.30
2023-03-29T06:09:44.964Z,101151.29
2023-03-29T06:12:20.154Z,101155.10
2023-03-29T06:14:52.282Z,101152.63
2023-03-29T06:17:24.239Z,101150.73
2023-03-29T06:19:57.954Z,101148.77
2023-03-29T06:22:32.603Z,101148.09
2023-03-29T06:25:04.695Z,101152.65
2023-03-29T06:27:36.830Z,101158.30
2023-03-29T06:30:10.588Z,101156.83
2023-03-29T06:32:42.577Z,101156.52
2023-03-29T06:35:15.199Z,101161.78
2023-03-29T06:37:50.487Z,101161.92
2023-03-29T06:40:23.074Z,101167.72
2023-03-29T06:42:57.985Z,101170.64
2023-03-29T06:45:31.000Z,101176.79
2023-03-29T06:48:03.387Z,101174.26
2023-03-29T06:50:35.892Z,101171.30
2023-03-29T06:53:07.854Z,101173.16
2023-03-29T06:55:39.995Z,101172.06
2023-03-29T06:58:11.978Z,101173.07
2023-03-29T07:00:44.102Z,101170.60
2023-03-29T07:03:20.519Z,101175.70
2023-03-29T07:05:53.174Z,101173.42
2023-03-29T07:08:31.385Z,101174.27
2023-03-29T07:11:04.108Z,101174.12
2023-03-29T07:13:36.940Z,101176.20
2023-03-29T07:16:12.898Z,101177.70
2023-03-29T07:18:45.570Z,101184.36
2023-03-29T07:21:17.875Z,101178.17
2023-03-29T07:23:49.781Z,101174.73
2023-03-29T07:26:28.946Z,101176.41
2023-03-29T07:29:02.069Z,101173.02
2023-03-29T07:31:35.969Z,101172.52
2023-03-29T07:34:10.882Z,101165.58
2023-03-29T07:36:45.414Z,101163.01
2023-03-29T07:39:17.748Z,101162.16
2023-03-29T07:41:50.174Z,101163.85
2023-03-29T07:44:25.882Z,101162.63
2023-03-29T07:47:00.325Z,101166.84
2023-03-29T07:49:32.317Z,101168.07
2023-03-29T07:52:04.620Z,101163.08
2023-03-29T07:54:36.672Z,101164.55
2023-03-29T07:57:08.616Z,101166.44
2023-03-29T07:59:40.794Z,101168.10
2023-03-29T08:02:14.183Z,101167.30
2023-03-29T08:04:47.095Z,101160.91
2023-03-29T08:07:21.327Z,101159.17
2023-03-29T08:09:53.348Z,101157.77
2023-03-29T08:12:25.208Z,101155.55
2023-03-29T08:14:57.381Z,101153.36
2023-03-29T08:17:29.931Z,101148.83
2023-03-29T08:20:02.391Z,101151.58
2023-03-29T08:22:35.086Z,101141.67
2023-03-29T08:25:08.437Z,101140.46
2023-03-29T08:27:40.540Z,101144.90
2023-03-29T08:30:17.487Z,101144.02
2023-03-29T08:32:52.293Z,101142.72
2023-03-29T08:35:25.761Z,101139.59
2023-03-29T08:37:57.746Z,101135.14
2023-03-29T08:40:31.306Z,101137.80
2023-03-29T08:43:18.110Z,101135.59
2023-03-29T08:45:57.288Z,101139.40
2023-03-29T08:48:32.162Z,101132.92
2023-03-29T08:51:09.322Z,101131.77
2023-03-29T08:53:45.304Z,101133.20
2023-03-29T08:56:19.697Z,101135.83
2023-03-29T08:58:53.203Z,101130.78
2023-03-29T09:01:26.977Z,101129.77
2023-03-29T09:04:05.531Z,101129.86
2023-03-29T09:06:37.524Z,101128.55
2023-03-29T09:09:16.803Z,101127.67
2023-03-29T09:12:11.513Z,101125.13
2023-03-29T09:14:52.438Z,101118.30
2023-03-29T09:17:34.338Z,101120.39
2023-03-29T09:20:15.689Z,101110.40
2023-03-29T09:22:56.694Z,101117.27
2023-03-29T09:25:40.965Z,101114.50
2023-03-29T09:28:22.707Z,101113.29
2023-03-29T09:31:00.887Z,101112.40
2023-03-29T09:33:42.786Z,101101.20
2023-03-29T09:36:18.490Z,101099.23
2023-03-29T09:38:54.470Z,101099.00
2023-03-29T09:41:31.704Z,101102.60
2023-03-29T09:44:10.754Z,101088.58
2023-03-29T09:46:47.397Z,101092.20
2023-03-29T09:49:22.320Z,101089.16
2023-03-29T09:51:54.394Z,101088.37
2023-03-29T09:54:26.627Z,101091.36
2023-03-29T09:56:59.439Z,101088.77
2023-03-29T09:59:31.474Z,101080.86
2023-03-29T10:02:11.203Z,101083.34
2023-03-29T10:04:43.609Z,101076.95
2023-03-29T10:07:21.025Z,101072.54
2023-03-29T10:09:55.302Z,101073.41
2023-03-29T10:12:27.697Z,101075.27
2023-03-29T10:15:02.929Z,101075.20
2023-03-29T10:17:42.828Z,101072.70
2023-03-29T10:20:18.482Z,101069.90
2023-03-29T10:22:55.912Z,101067.60
2023-03-29T10:25:31.580Z,101066.17
2023-03-29T10:28:08.091Z,101078.34
2023-03-29T10:30:40.966Z,101073.55
2023-03-29T10:33:20.451Z,101069.66
2023-03-29T10:35:53.634Z,101069.65
2023-03-29T10:38:28.333Z,101068.44
2023-03-29T10:41:08.182Z,101070.29
2023-03-29T10:43:44.340Z,101067.63
2023-03-29T10:46:24.137Z,101068.15
2023-03-29T10:48:59.225Z,101069.73
2023-03-29T10:51:32.409Z,101067.60
2023-03-29T10:54:05.777Z,101064.77
2023-03-29T10:56:40.711Z,101067.25
2023-03-29T10:59:28.447Z,101059.04
2023-03-29T11:02:24.406Z,101062.98
2023-03-29T11:05:06.605Z,101056.18
2023-03-29T11:07:42.029Z,101050.24
2023-03-29T11:10:31.093Z,101046.80
2023-03-29T11:13:09.057Z,101041.59
2023-03-29T11:15:50.297Z,101042.54
2023-03-29T11:19:04.079Z,101039.65
2023-03-29T11:21:39.713Z,101029.24
2023-03-29T11:24:28.184Z,101023.20
2023-03-29T11:27:12.530Z,101027.75
2023-03-29T11:29:52.865Z,101026.17
2023-03-29T11:32:33.599Z,101023.11
2023-03-29T11:35:16.626Z,101022.35
2023-03-29T11:37:54.167Z,101026.22
2023-03-29T11:40:36.140Z,101016.23
2023-03-29T11:43:12.900Z,101015.96
2023-03-29T11:45:48.148Z,101017.11
2023-03-29T11:48:22.394Z,101013.40
2023-03-29T11:50:56.338Z,101009.71
2023-03-29T11:53:28.222Z,101004.42
2023-03-29T11:56:12.084Z,101008.73
2023-03-29T11:58:46.123Z,101005.12
2023-03-29T12:01:17.354Z,100995.23
2023-03-29T12:03:56.824Z,100994.56
2023-03-29T12:06:31.273Z,100990.18
2023-03-29T12:09:05.812Z,100989.58
2023-03-29T12:11:41.968Z,100989.98
2023-03-29T12:14:17.842Z,100990.43
2023-03-29T12:16:53.098Z,100989.70
2023-03-29T12:19:31.085Z,100992.61
2023-03-29T12:22:07.996Z,100989.14
2023-03-29T12:24:42.357Z,100987.49
2023-03-29T12:27:22.338Z,100982.11
2023-03-29T12:30:21.463Z,100975.45
2023-03-29T12:33:07.305Z,100971.54
2023-03-29T12:35:45.982Z,100977.52
2023-03-29T12:38:22.227Z,100969.67
2023-03-29T12:41:00.859Z,100973.45
2023-03-29T12:43:34.457Z,100970.61
2023-03-29T12:46:09.726Z,100967.48
2023-03-29T12:48:42.870Z,100972.02
2023-03-29T12:51:17.491Z,100963.13
2023-03-29T12:53:50.586Z,100962.83
2023-03-29T12:56:24.787Z,100964.73
2023-03-29T12:59:06.784Z,100957.63
2023-03-29T13:01:42.229Z,100951.54
2023-03-29T13:04:20.985Z,100948.38
2023-03-29T13:07:05.054Z,100947.98
2023-03-29T13:09:48.721Z,100953.77
2023-03-29T13:12:28.007Z,100949.23
2023-03-29T13:15:02.647Z,100952.13
2023-03-29T13:17:44.950Z,100945.84
2023-03-29T13:20:29.540Z,100949.64
2023-03-29T13:23:03.654Z,100953.30
2023-03-29T13:25:48.092Z,100945.08
2023-03-29T13:28:27.275Z,100941.98
2023-03-29T13:31:05.120Z,100938.81
2023-03-29T13:33:49.821Z,100931.47
2023-03-29T13:36:31.905Z,100934.33
2023-03-29T13:39:07.109Z,100928.43
2023-03-29T13:41:50.305Z,100922.19
2023-03-29T13:44:30.504Z,100921.61
2023-03-29T13:47:29.080Z,100920.63
2023-03-29T13:50:05.532Z,100922.70
2023-03-29T13:52:40.320Z,100923.13
2023-03-29T13:55:17.404Z,100924.13
2023-03-29T13:57:54.626Z,100925.11
2023-03-29T14:00:30.149Z,100924.89
2023-03-29T14:03:04.937Z,100921.05
2023-03-29T14:05:38.652Z,100924.40
2023-03-29T14:08:16.928Z,100919.30
2023-03-29T14:10:48.894Z,100919.61
2023-03-29T14:13:23.721Z,100916.67
2023-03-29T14:15:57.691Z,100919.59
2023-03-29T14:18:34.294Z,100917.08
2023-03-29T14:21:07.218Z,100913.71
2023-03-29T14:23:42.177Z,100910.79
2023-03-29T14:26:18.779Z,100906.05
2023-03-29T14:28:53.513Z,100903.85
2023-03-29T14:31:26.942Z,100899.53
2023-03-29T14:34:00.506Z,100901.15
2023-03-29T14:36:34.364Z,100896.73
2023-03-29T14:39:05.975Z,100903.43
2023-03-29T14:41:39.024Z,100904.23
2023-03-29T14:44:12.510Z,100902.50
2023-03-29T14:46:44.780Z,100901.39
2023-03-29T14:49:18.962Z,100902.93
2023-03-29T14:51:51.810Z,100899.30
2023-03-29T14:54:25.342Z,100895.73
2023-03-29T14:56:58.388Z,100890.73
2023-03-29T14:59:33.876Z,100888.36
2023-03-29T15:02:06.433Z,100889.00
2023-03-29T15:04:39.078Z,100882.30
2023-03-29T15:07:11.149Z,100884.03
2023-03-29T15:09:46.173Z,100876.92
2023-03-29T15:12:18.690Z,100876.58
2023-03-29T15:14:51.418Z,100866.86
2023-03-29T15:17:43.140Z,100859.98
2023-03-29T15:20:25.712Z,100861.35
2023-03-29T15:23:01.048Z,100863.83
2023-03-29T15:25:37.830Z,100858.70
2023-03-29T15:28:28.297Z,100861.18
2023-03-29T15:31:08.292Z,100864.92
2023-03-29T15:33:41.819Z,100867.67
2023-03-29T15:36:15.597Z,100869.49
2023-03-29T15:38:51.720Z,100865.25
2023-03-29T15:41:23.673Z,100862.55
2023-03-29T15:43:55.828Z,100861.32
2023-03-29T15:46:28.013Z,100859.70
2023-03-29T15:49:00.220Z,100861.61
2023-03-29T15:51:32.121Z,100859.07
2023-03-29T15:54:04.225Z,100855.64
2023-03-29T15:56:41.340Z,100852.33
2023-03-29T15:59:14.793Z,100852.02
2023-03-29T16:01:47.831Z,100853.22
2023-03-29T16:04:21.173Z,100854.45
2023-03-29T16:06:55.333Z,100851.79
2023-03-29T16:09:27.387Z,100849.59
2023-03-29T16:12:01.643Z,100844.37
2023-03-29T16:14:33.180Z,100843.20
2023-03-29T16:17:06.535Z,100844.44
2023-03-29T16:19:38.499Z,100841.79
2023-03-29T16:22:11.046Z,100841.10
2023-03-29T16:24:43.831Z,100844.27
2023-03-29T16:27:17.129Z,100842.89
2023-03-29T16:29:48.935Z,100844.84
2023-03-29T16:32:21.500Z,100837.33
2023-03-29T16:34:53.653Z,100837.78
2023-03-29T16:37:26.132Z,100834.69
2023-03-29T16:39:58.267Z,100834.07
2023-03-29T16:42:30.360Z,100834.51
2023-03-29T16:45:03.015Z,100832.56
2023-03-29T16:47:35.276Z,100825.29
2023-03-29T16:50:08.570Z,100823.50
2023-03-29T16:52:40.664Z,100823.16
2023-03-29T16:55:15.194Z,100821.73
2023-03-29T16:57:47.739Z,100816.21
2023-03-29T17:00:21.898Z,100823.66
2023-03-29T17:02:54.064Z,100817.64
2023-03-29T17:05:26.489Z,100817.62
2023-03-29T17:07:58.827Z,100818.71
2023-03-29T17:10:31.420Z,100818.26
2023-03-29T17:13:04.146Z,100818.20
2023-03-29T17:15:39.431Z,100822.38
2023-03-29T17:18:12.384Z,100819.27
2023-03-29T17:20:44.201Z,100822.10
2023-03-29T17:23:16.221Z,100819.05
2023-03-29T17:25:48.054Z,100819.56
2023-03-29T17:28:20.131Z,100815.86
2023-03-29T17:30:51.966Z,100814.77
2023-03-29T17:33:26.217Z,100814.89
2023-03-29T17:35:58.166Z,100815.66
2023-03-29T17:38:34.542Z,100822.77
2023-03-29T17:41:07.138Z,100823.95
2023-03-29T17:43:39.996Z,100826.30
2023-03-29T17:46:12.066Z,100823.39
2023-03-29T17:48:44.664Z,100822.02
2023-03-29T17:51:16.461Z,100820.02
2023-03-29T17:53:48.529Z,100827.92
2023-03-29T17:56:21.723Z,100830.66
2023-03-29T17:58:53.899Z,100828.13
2023-03-29T18:01:25.804Z,100832.85
2023-03-29T18:03:58.006Z,100837.73
2023-03-29T18:06:29.926Z,100839.22
2023-03-29T18:09:02.502Z,100838.79
2023-03-29T18:11:36.542Z,100837.98
2023-03-29T18:14:07.771Z,100832.18
2023-03-29T18:16:41.527Z,100831.36
2023-03-29T18:19:13.787Z,100832.43
2023-03-29T18:21:45.557Z,100832.89
2023-03-29T18:24:17.982Z,100835.98
2023-03-29T18:26:49.938Z,100827.42
2023-03-29T18:29:22.194Z,100824.75
2023-03-29T18:31:54.073Z,100822.74
2023-03-29T18:34:26.778Z,100821.84
2023-03-29T18:36:58.771Z,100820.19
2023-03-29T18:39:32.074Z,100821.21
2023-03-29T18:42:03.875Z,100820.03
2023-03-29T18:44:36.166Z,100822.73
2023-03-29T18:47:08.820Z,100820.98
2023-03-29T18:49:41.125Z,100819.91
2023-03-29T18:52:12.905Z,100822.38
2023-03-29T18:54:45.137Z,100822.50
2023-03-29T18:57:17.028Z,100819.71
2023-03-29T18:59:49.390Z,100819.92
2023-03-29T19:02:21.243Z,100819.44
2023-03-29T19:04:53.602Z,100824.07
2023-03-29T19:07:25.370Z,100828.05
2023-03-29T19:09:57.622Z,100834.58
2023-03-29T19:12:30.165Z,100832.12
2023-03-29T19:15:02.305Z,100826.19
2023-03-29T19:17:34.222Z,100824.09
2023-03-29T19:20:10.165Z,100824.73
2023-03-29T19:22:42.182Z,100822.61
2023-03-29T19:25:14.859Z,100821.95
2023-03-29T19:27:46.674Z,100822.49
2023-03-29T19:30:20.243Z,100826.60
2023-03-29T19:32:52.452Z,100826.34
2023-03-29T19:35:24.868Z,100826.70
2023-03-29T19:37:56.655Z,100824.33
2023-03-29T19:40:29.000Z,100827.54
2023-03-29T19:43:00.883Z,100819.20
2023-03-29T19:45:33.342Z,100818.35
2023-03-29T19:48:05.432Z,100818.42
2023-03-29T19:50:42.055Z,100814.24
2023-03-29T19:53:14.663Z,100812.30
2023-03-29T19:55:46.921Z,100809.30
2023-03-29T19:58:18.753Z,100806.70
2023-03-29T20:00:53.460Z,100807.93
2023-03-29T20:03:28.515Z,100805.17
2023-03-29T20:06:01.485Z,100802.75
2023-03-29T20:08:33.470Z,100796.66
2023-03-29T20:11:10.440Z,100795.77
2023-03-29T20:13:44.542Z,100791.44
2023-03-29T20:16:19.065Z,100784.39
2023-03-29T20:18:49.337Z,100783.06
2023-03-29T20:21:21.738Z,100776.52
2023-03-29T20:23:53.582Z,100771.97
2023-03-29T20:26:25.983Z,100771.47
2023-03-29T20:28:57.935Z,100770.30
2023-03-29T20:31:31.696Z,100773.33
2023-03-29T20:34:03.563Z,100772.05
2023-03-29T20:36:36.235Z,100768.67
2023-03-29T20:39:08.567Z,100762.06
2023-03-29T20:41:40.694Z,100761.35
2023-03-29T20:44:13.722Z,100756.62
2023-03-29T20:46:54.803Z,100754.61
2023-03-29T20:49:27.278Z,100754.66
2023-03-29T20:51:59.496Z,100755.58
2023-03-29T20:54:33.340Z,100754.20
2023-03-29T20:57:07.161Z,100755.39
2023-03-29T20:59:39.409Z,100753.48
2023-03-29T21:02:12.709Z,100747.93
2023-03-29T21:04:44.997Z,100750.46
2023-03-29T21:07:18.336Z,100748.64
2023-03-29T21:09:50.680Z,100751.70
2023-03-29T21:12:23.685Z,100744.91
2023-03-29T21:14:55.482Z,100745.00
2023-03-29T21:17:28.019Z,100742.29
2023-03-29T21:19:59.833Z,100742.52
2023-03-29T21:22:34.318Z,100742.80
2023-03-29T21:25:09.774Z,100745.51
2023-03-29T21:27:41.856Z,100741.83
2023-03-29T21:30:14.659Z,100744.30
2023-03-29T21:32:46.850Z,100744.14
2023-03-29T21:35:18.976Z,100739.55
2023-03-29T21:37:51.398Z,100743.64
2023-03-29T21:40:23.293Z,100735.65
2023-03-29T21:42:55.458Z,100732.48
2023-03-29T21:45:27.461Z,100730.56
2023-03-29T21:48:00.097Z,100733.95
2023-03-29T21:50:33.958Z,100732.52
2023-03-29T21:53:06.737Z,100730.45
2023-03-29T21:55:38.662Z,100727.36
2023-03-29T21:58:11.167Z,100731.15
2023-03-29T22:00:43.081Z,100726.91
2023-03-29T22:03:16.154Z,100727.48
2023-03-29T22:05:58.090Z,100724.83
2023-03-29T22:08:30.248Z,100720.02
2023-03-29T22:11:09.002Z,100713.48
2023-03-29T22:13:41.956Z,100712.11
2023-03-29T22:16:16.856Z,100711.10
2023-03-29T22:18:50.178Z,100707.14
2023-03-29T22:21:23.727Z,100699.09
2023-03-29T22:23:57.498Z,100695.61
2023-03-29T22:26:32.207Z,100694.08
2023-03-29T22:29:04.298Z,100689.80
2023-03-29T22:31:37.876Z,100689.65
2023-03-29T22:34:10.229Z,100687.36
2023-03-29T22:36:42.018Z,100684.59
2023-03-29T22:39:14.426Z,100683.52
2023-03-29T22:41:46.850Z,100686.39
2023-03-29T22:44:19.170Z,100684.03
2023-03-29T22:46:51.633Z,100678.45
2023-03-29T22:49:23.674Z,100678.16
2023-03-29T22:51:55.875Z,100675.57
2023-03-29T22:54:27.953Z,100673.63
2023-03-29T22:57:00.160Z,100675.47
2023-03-29T22:59:32.679Z,100674.09
2023-03-29T23:02:04.503Z,100674.91
2023-03-29T23:04:38.953Z,100671.83
2023-03-29T23:07:11.102Z,100674.83
2023-03-29T23:09:43.487Z,100674.85
2023-03-29T23:12:15.525Z,100675.73
2023-03-29T23:14:47.689Z,100669.73
2023-03-29T23:17:20.636Z,100665.79
2023-03-29T23:19:53.020Z,100663.08
2023-03-29T23:22:24.861Z,100658.00
2023-03-29T23:24:57.134Z,100653.69
2023-03-29T23:27:28.963Z,100649.79
2023-03-29T23:30:01.797Z,100649.48
2023-03-29T23:32:34.013Z,100645.96
2023-03-29T23:35:07.428Z,100644.76
2023-03-29T23:37:39.800Z,100648.10
2023-03-29T23:40:14.037Z,100649.69
2023-03-29T23:42:48.499Z,100648.23
2023-03-29T23:45:21.477Z,100646.04
2023-03-29T23:47:53.395Z,100644.34
2023-03-29T23:50:29.015Z,100632.77
2023-03-29T23:53:01.017Z,100637.91
2023-03-29T23:55:33.794Z,100640.81
2023-03-29T23:58:05.514Z,100638.47
